Time;durP1;ratioP1;P1;durP2;ratioP2;P2;SDS_P1;SDS_P2;PMS_P1;PMS_P2;Temp;Humidity;BMP_temperature;BMP_pressure;BME280_temperature;BME280_humidity;BME280_pressure;Samples;Min_cycle;Max_cycle;Signal;HPM_P1;HPM_P2
2021/10/25 00:01:29;;;;;;;11.35;10.15;;;6.40;99.90;;;;;;4953426;28;20193;-85
2021/10/25 00:03:55;;;;;;;12.27;10.98;;;6.30;99.90;;;;;;4929894;29;20621;-86
2021/10/25 00:06:21;;;;;;;11.85;10.48;;;6.80;99.90;;;;;;4947576;28;20223;-85
2021/10/25 00:08:46;;;;;;;12.30;11.00;;;6.80;99.90;;;;;;4936430;29;20219;-85
2021/10/25 00:11:13;;;;;;;11.43;10.20;;;7.00;99.90;;;;;;4936010;28;20283;-85
2021/10/25 00:13:41;;;;;;;11.63;10.30;;;6.40;99.90;;;;;;4923361;29;20193;-85
2021/10/25 00:16:08;;;;;;;12.23;10.50;;;6.50;99.90;;;;;;4934906;28;20212;-86
2021/10/25 00:18:34;;;;;;;11.90;10.70;;;6.70;99.90;;;;;;4924547;29;20213;-85
2021/10/25 00:21:00;;;;;;;12.50;9.95;;;6.10;99.90;;;;;;4932742;28;20196;-85
2021/10/25 00:23:26;;;;;;;12.20;11.00;;;6.60;99.90;;;;;;4935382;29;20189;-85
2021/10/25 00:25:52;;;;;;;12.87;11.50;;;6.30;99.90;;;;;;4928981;28;20714;-85
2021/10/25 00:28:17;;;;;;;12.15;10.82;;;6.80;99.90;;;;;;4941635;29;20579;-86
2021/10/25 00:30:43;;;;;;;11.80;10.57;;;6.30;99.90;;;;;;4928437;29;20201;-86
2021/10/25 00:33:09;;;;;;;11.87;10.60;;;5.90;99.90;;;;;;4934725;29;20250;-86
2021/10/25 00:35:34;;;;;;;11.27;10.00;;;5.90;99.90;;;;;;4934014;29;20772;-85
2021/10/25 00:38:00;;;;;;;12.20;10.90;;;6.50;99.90;;;;;;4935046;29;20477;-85
2021/10/25 00:40:26;;;;;;;11.93;9.77;;;6.30;99.90;;;;;;4939454;28;20186;-86
2021/10/25 00:42:53;;;;;;;11.47;10.07;;;6.50;99.90;;;;;;4935623;29;20443;-85
2021/10/25 00:45:18;;;;;;;10.10;8.98;;;5.80;99.90;;;;;;4951872;28;21526;-85
2021/10/25 00:47:44;;;;;;;13.73;10.63;;;6.10;99.90;;;;;;4940022;28;20205;-85
2021/10/25 00:50:10;;;;;;;12.33;10.80;;;6.10;99.90;;;;;;4933882;29;20413;-85
2021/10/25 00:52:39;;;;;;;12.40;10.87;;;6.10;99.90;;;;;;4935917;29;20191;-85
2021/10/25 00:55:07;;;;;;;10.25;9.23;;;5.90;99.90;;;;;;4948904;28;20192;-86
2021/10/25 00:57:32;;;;;;;11.95;10.75;;;6.40;99.90;;;;;;4932300;29;20213;-85
2021/10/25 00:59:58;;;;;;;12.20;9.70;;;6.00;99.90;;;;;;4923011;29;20215;-85
2021/10/25 01:02:23;;;;;;;10.53;9.53;;;6.90;99.90;;;;;;4926653;29;21933;-85
2021/10/25 01:04:49;;;;;;;12.93;10.33;;;6.50;99.90;;;;;;4932284;29;20186;-85
2021/10/25 01:07:15;;;;;;;11.13;9.97;;;6.50;99.90;;;;;;4925234;29;20202;-86
2021/10/25 01:09:42;;;;;;;10.57;9.47;;;6.10;99.90;;;;;;4929313;29;20451;-85
2021/10/25 01:12:07;;;;;;;11.65;10.40;;;6.50;99.90;;;;;;4932001;29;20275;-85
2021/10/25 01:14:33;;;;;;;11.70;10.20;;;6.30;99.90;;;;;;4927764;29;20284;-85
2021/10/25 01:16:59;;;;;;;11.70;9.37;;;7.30;99.90;;;;;;4941801;29;20520;-86
2021/10/25 01:19:24;;;;;;;11.70;10.50;;;6.60;99.90;;;;;;4932353;29;20204;-85
2021/10/25 01:21:50;;;;;;;11.53;9.83;;;6.90;99.90;;;;;;4946241;28;20193;-85
2021/10/25 01:24:15;;;;;;;10.90;9.80;;;6.70;99.90;;;;;;4935023;29;20189;-85
2021/10/25 01:26:41;;;;;;;12.50;9.73;;;7.00;99.90;;;;;;4936203;29;20653;-85
2021/10/25 01:29:08;;;;;;;11.07;9.97;;;6.60;99.90;;;;;;4929974;29;20550;-85
2021/10/25 01:31:34;;;;;;;12.98;10.60;;;7.00;99.90;;;;;;4952203;28;20270;-85
2021/10/25 01:33:59;;;;;;;10.23;9.23;;;6.90;99.90;;;;;;4933396;29;20708;-86
2021/10/25 01:36:25;;;;;;;10.27;9.07;;;7.40;99.90;;;;;;4932665;29;20445;-85
2021/10/25 01:38:50;;;;;;;11.20;10.10;;;6.70;99.90;;;;;;4916656;29;20277;-85
2021/10/25 01:41:17;;;;;;;11.20;10.00;;;7.00;99.90;;;;;;4945296;28;20194;-85
2021/10/25 01:43:43;;;;;;;10.07;9.07;;;7.50;99.90;;;;;;4929730;29;20649;-86
2021/10/25 01:46:09;;;;;;;11.40;8.70;;;7.60;99.90;;;;;;4931682;29;20193;-85
2021/10/25 01:48:35;;;;;;;10.30;9.10;;;6.60;99.90;;;;;;4922427;29;20981;-84
2021/10/25 01:51:00;;;;;;;12.30;10.65;;;6.60;99.90;;;;;;4931169;29;20224;-86
2021/10/25 01:53:28;;;;;;;11.13;9.93;;;7.50;99.90;;;;;;4928484;29;20220;-85
2021/10/25 01:55:56;;;;;;;10.57;9.48;;;6.80;99.90;;;;;;4932469;29;20272;-85
2021/10/25 01:58:22;;;;;;;10.88;9.77;;;6.60;99.90;;;;;;4923027;29;20712;-85
2021/10/25 02:00:47;;;;;;;9.67;8.73;;;7.50;99.90;;;;;;4917856;29;20277;-86
2021/10/25 02:03:13;;;;;;;10.67;9.57;;;6.90;99.90;;;;;;4930965;29;20279;-85
2021/10/25 02:05:39;;;;;;;10.07;8.93;;;7.30;99.90;;;;;;4934791;29;20184;-85
2021/10/25 02:08:06;;;;;;;10.18;9.18;;;6.70;99.90;;;;;;4928633;29;20255;-85
2021/10/25 02:10:32;;;;;;;9.57;8.50;;;6.40;99.90;;;;;;4926986;29;20236;-85
2021/10/25 02:12:58;;;;;;;10.20;8.73;;;6.60;99.90;;;;;;4944694;28;20185;-85
2021/10/25 02:15:24;;;;;;;9.50;8.50;;;6.20;99.90;;;;;;4928865;29;20243;-86
2021/10/25 02:17:49;;;;;;;9.83;8.47;;;6.80;99.90;;;;;;4926922;29;20274;-85
2021/10/25 02:20:15;;;;;;;10.83;9.53;;;6.30;99.90;;;;;;4924507;29;21064;-86
2021/10/25 02:22:41;;;;;;;9.73;8.73;;;6.00;99.90;;;;;;4929839;29;20220;-85
2021/10/25 02:25:08;;;;;;;10.20;9.18;;;6.80;99.90;;;;;;4927854;29;20200;-86
2021/10/25 02:27:33;;;;;;;10.55;9.45;;;6.40;99.90;;;;;;4942124;28;20713;-85
2021/10/25 02:29:59;;;;;;;11.10;8.63;;;6.00;99.90;;;;;;4917568;29;20200;-85
2021/10/25 02:32:24;;;;;;;14.30;9.13;;;6.70;99.90;;;;;;4933797;29;20239;-85
2021/10/25 02:34:51;;;;;;;10.23;9.10;;;6.00;99.90;;;;;;4941214;29;20265;-84
2021/10/25 02:37:17;;;;;;;10.50;9.43;;;6.00;99.90;;;;;;4924723;29;20302;-85
2021/10/25 02:39:44;;;;;;;10.20;9.20;;;6.50;99.90;;;;;;4939041;28;20697;-86
2021/10/25 02:42:11;;;;;;;10.60;9.50;;;6.50;99.90;;;;;;4948781;29;20235;-86
2021/10/25 02:44:37;;;;;;;11.63;9.13;;;6.70;99.90;;;;;;4951434;28;20197;-85
2021/10/25 02:47:03;;;;;;;9.48;8.45;;;6.60;99.90;;;;;;4932064;28;20571;-85
2021/10/25 02:49:29;;;;;;;10.23;8.93;;;6.00;99.90;;;;;;4947238;28;20201;-85
2021/10/25 02:51:55;;;;;;;10.55;8.88;;;6.50;99.90;;;;;;4931529;29;20447;-85
2021/10/25 02:54:21;;;;;;;10.90;8.30;;;6.30;99.90;;;;;;4932959;29;20194;-85
2021/10/25 02:56:47;;;;;;;13.60;9.00;;;6.10;99.90;;;;;;4930957;29;20192;-85
2021/10/25 02:59:12;;;;;;;11.32;8.85;;;6.20;99.90;;;;;;4947410;29;20482;-86
2021/10/25 03:01:39;;;;;;;8.90;7.90;;;5.80;99.90;;;;;;4920360;29;20564;-84
2021/10/25 03:04:06;;;;;;;11.95;10.57;;;6.30;99.90;;;;;;4932982;29;20686;-85
2021/10/25 03:06:32;;;;;;;11.35;9.77;;;5.80;99.90;;;;;;4937372;29;20191;-85
2021/10/25 03:08:59;;;;;;;9.95;8.95;;;6.20;99.90;;;;;;4928429;29;20215;-85
2021/10/25 03:11:25;;;;;;;11.57;9.07;;;6.20;99.90;;;;;;4926984;29;20185;-85
2021/10/25 03:13:51;;;;;;;10.00;9.00;;;6.10;99.90;;;;;;4936816;28;20198;-85
2021/10/25 03:16:17;;;;;;;10.65;9.07;;;6.00;99.90;;;;;;4948186;28;20460;-85
2021/10/25 03:18:43;;;;;;;9.82;8.82;;;5.70;99.90;;;;;;4931692;29;20582;-85
2021/10/25 03:21:08;;;;;;;10.80;9.77;;;5.50;99.90;;;;;;4928200;28;20267;-85
2021/10/25 03:23:35;;;;;;;10.70;8.80;;;5.90;99.90;;;;;;4927201;29;20676;-85
2021/10/25 03:26:01;;;;;;;10.15;9.20;;;5.50;99.90;;;;;;4929258;28;20180;-85
2021/10/25 03:28:27;;;;;;;11.27;8.35;;;5.60;99.90;;;;;;4925746;29;21096;-86
2021/10/25 03:30:52;;;;;;;10.20;9.03;;;6.10;99.90;;;;;;4923568;29;20198;-85
2021/10/25 03:33:20;;;;;;;10.45;9.45;;;5.90;99.90;;;;;;4934334;29;20521;-85
2021/10/25 03:35:45;;;;;;;9.65;8.65;;;6.40;99.90;;;;;;4931558;29;20187;-86
2021/10/25 03:38:13;;;;;;;10.57;8.77;;;5.30;99.90;;;;;;4936143;29;20223;-85
2021/10/25 03:40:41;;;;;;;10.30;9.25;;;6.10;99.90;;;;;;4943896;29;20220;-85
2021/10/25 03:43:07;;;;;;;9.60;7.93;;;5.50;99.90;;;;;;4949843;29;20240;-86
2021/10/25 03:45:37;;;;;;;9.45;8.57;;;6.00;99.90;;;;;;4947617;28;20182;-85
2021/10/25 03:48:52;;;;;;;10.80;9.70;;;5.80;99.90;;;;;;4920221;29;20208;-86
2021/10/25 03:50:51;;;;;;;10.20;8.70;;;5.90;99.90;;;;;;4925414;29;20200;-85
2021/10/25 03:56:08;;;;;;;10.18;8.75;;;5.80;99.90;;;;;;4940565;29;20279;-85
2021/10/25 04:25:42;;;;;;;8.55;7.75;;;5.90;99.90;;;;;;4917894;28;20197;-85
2021/10/25 04:28:11;;;;;;;8.63;7.78;;;6.10;99.90;;;;;;4941809;29;20698;-85
2021/10/25 04:30:38;;;;;;;9.98;8.55;;;5.80;99.90;;;;;;4927188;29;20222;-86
2021/10/25 04:33:05;;;;;;;9.50;8.50;;;5.70;99.90;;;;;;4924979;29;20186;-85
2021/10/25 04:35:32;;;;;;;10.77;9.05;;;5.90;99.90;;;;;;4932773;29;20656;-84
2021/10/25 04:37:59;;;;;;;9.68;8.60;;;5.80;99.90;;;;;;4920563;29;20210;-86
2021/10/25 04:40:25;;;;;;;9.65;8.18;;;5.40;99.90;;;;;;4929490;29;20620;-85
2021/10/25 04:42:51;;;;;;;8.63;7.80;;;5.50;99.90;;;;;;4927310;29;20188;-84
2021/10/25 04:45:19;;;;;;;9.70;8.37;;;5.80;99.90;;;;;;4934812;29;20290;-85
2021/10/25 04:47:45;;;;;;;10.63;9.10;;;6.20;99.90;;;;;;4939765;28;20312;-84
2021/10/25 04:50:11;;;;;;;10.65;9.00;;;5.90;99.90;;;;;;4931002;28;20635;-85
2021/10/25 04:52:36;;;;;;;9.97;8.97;;;5.80;99.90;;;;;;4932106;29;20203;-85
2021/10/25 04:55:03;;;;;;;9.68;8.77;;;5.40;99.90;;;;;;4932978;29;20524;-86
2021/10/25 04:57:29;;;;;;;10.40;9.35;;;5.90;99.90;;;;;;4917398;29;20215;-85
2021/10/25 04:59:55;;;;;;;10.57;9.53;;;5.50;99.90;;;;;;4919544;29;20217;-85
2021/10/25 05:02:21;;;;;;;10.17;8.70;;;5.40;99.90;;;;;;4948977;29;20900;-86
2021/10/25 05:04:47;;;;;;;13.25;10.65;;;5.90;99.90;;;;;;4922928;29;20285;-86
2021/10/25 05:07:12;;;;;;;10.40;9.30;;;6.00;99.90;;;;;;4936137;29;20293;-85
2021/10/25 05:09:38;;;;;;;9.67;8.03;;;6.20;99.90;;;;;;4927282;29;20241;-86
2021/10/25 05:12:04;;;;;;;9.07;8.20;;;5.50;99.90;;;;;;4944716;29;20227;-84
2021/10/25 05:14:30;;;;;;;8.88;8.07;;;6.20;99.90;;;;;;4946184;29;20654;-83
2021/10/25 05:16:56;;;;;;;10.00;8.87;;;5.70;99.90;;;;;;4942774;29;20299;-83
2021/10/25 05:19:21;;;;;;;9.30;8.40;;;5.70;99.90;;;;;;4938075;29;20471;-83
2021/10/25 05:21:47;;;;;;;9.97;8.80;;;5.50;99.90;;;;;;4920608;29;20192;-87
2021/10/25 05:24:13;;;;;;;10.30;8.23;;;6.20;99.90;;;;;;4924495;29;20619;-88
2021/10/25 05:26:38;;;;;;;11.50;9.70;;;5.70;99.90;;;;;;4921598;29;20185;-85
2021/10/25 05:29:04;;;;;;;12.67;11.20;;;5.60;99.90;;;;;;4929409;29;20423;-82
2021/10/25 05:31:29;;;;;;;10.10;9.00;;;5.90;99.90;;;;;;4949878;29;20389;-81
2021/10/25 05:33:57;;;;;;;9.30;8.40;;;6.00;99.90;;;;;;4932532;29;20570;-81
2021/10/25 05:36:22;;;;;;;10.30;9.13;;;6.10;99.90;;;;;;4945530;28;20253;-86
2021/10/25 05:38:48;;;;;;;9.67;8.40;;;5.70;99.90;;;;;;4925631;29;20354;-86
2021/10/25 05:41:14;;;;;;;10.27;9.27;;;5.90;99.90;;;;;;4939364;28;20364;-88
2021/10/25 05:43:43;;;;;;;9.63;8.63;;;6.00;99.90;;;;;;4928899;29;20230;-85
2021/10/25 05:46:08;;;;;;;10.88;9.80;;;6.10;99.90;;;;;;4933019;29;20270;-82
2021/10/25 05:48:38;;;;;;;10.03;9.03;;;6.40;99.90;;;;;;4928911;29;20239;-90
2021/10/25 05:51:03;;;;;;;12.95;9.80;;;6.10;99.90;;;;;;4934357;29;20199;-88
2021/10/25 05:53:29;;;;;;;10.40;9.07;;;5.30;99.90;;;;;;4933588;29;20702;-81
2021/10/25 05:55:56;;;;;;;11.50;9.37;;;5.80;99.90;;;;;;4935205;29;20262;-90
2021/10/25 05:58:22;;;;;;;11.45;9.60;;;5.70;99.90;;;;;;4931906;29;20207;-91
2021/10/25 06:00:54;;;;;;;10.52;9.52;;;5.30;99.90;;;;;;4931591;29;20187;-87
2021/10/25 06:03:23;;;;;;;10.77;9.65;;;5.80;99.90;;;;;;4951521;28;20184;-89
2021/10/25 06:05:49;;;;;;;11.15;9.73;;;5.70;99.90;;;;;;4935677;28;20185;-88
2021/10/25 06:08:15;;;;;;;10.32;9.23;;;6.00;99.90;;;;;;4940866;29;20302;-89
2021/10/25 06:10:42;;;;;;;35.65;22.50;;;6.00;99.90;;;;;;4933491;29;20694;-88
2021/10/25 06:13:11;;;;;;;11.95;10.02;;;5.60;99.90;;;;;;4955041;28;20229;-89
2021/10/25 06:15:39;;;;;;;11.10;9.60;;;5.50;99.90;;;;;;4937878;29;20191;-95
2021/10/25 06:18:08;;;;;;;11.13;9.93;;;6.30;99.90;;;;;;4947892;23;20277;-49
2021/10/25 06:20:37;;;;;;;11.57;9.75;;;6.10;99.90;;;;;;4959071;28;20219;-50
2021/10/25 06:23:11;;;;;;;11.60;10.00;;;6.20;99.90;;;;;;4958454;28;20227;-50
2021/10/25 06:25:37;;;;;;;9.77;8.75;;;5.80;99.90;;;;;;4960502;28;20191;-51
2021/10/25 06:28:04;;;;;;;11.30;9.43;;;6.00;99.90;;;;;;4956907;28;20220;-50
2021/10/25 06:30:30;;;;;;;9.60;8.70;;;5.90;99.90;;;;;;4962936;28;20573;-50
2021/10/25 06:32:56;;;;;;;11.43;9.90;;;5.80;99.90;;;;;;4972285;28;20187;-50
2021/10/25 06:35:25;;;;;;;10.47;9.27;;;5.90;99.90;;;;;;4964718;28;20192;-50
2021/10/25 06:40:22;;;;;;;10.32;9.13;;;5.90;99.90;;;;;;4960150;28;20218;-48
2021/10/25 06:42:48;;;;;;;8.45;7.65;;;6.00;99.90;;;;;;4970371;28;20199;-51
2021/10/25 06:45:18;;;;;;;10.23;8.93;;;6.00;99.90;;;;;;4967730;28;20202;-52
2021/10/25 06:47:44;;;;;;;8.95;7.57;;;6.10;99.90;;;;;;4970529;28;20228;-51
2021/10/25 06:50:10;;;;;;;11.03;9.87;;;6.20;99.90;;;;;;4945719;28;20699;-51
2021/10/25 06:52:36;;;;;;;9.65;8.45;;;6.30;99.90;;;;;;4972392;28;20326;-52
2021/10/25 06:55:04;;;;;;;12.07;8.73;;;6.40;99.90;;;;;;4959405;28;20629;-51
2021/10/25 06:57:29;;;;;;;11.20;9.82;;;6.20;99.90;;;;;;4966368;28;20184;-52
2021/10/25 06:59:55;;;;;;;10.83;9.53;;;6.40;99.90;;;;;;4960339;28;20214;-51
2021/10/25 07:02:21;;;;;;;11.83;10.03;;;6.20;99.90;;;;;;4957878;28;20188;-52
2021/10/25 07:04:48;;;;;;;11.73;9.38;;;6.30;99.90;;;;;;4965639;28;20194;-50
2021/10/25 07:07:14;;;;;;;9.20;8.30;;;6.30;99.90;;;;;;4960619;28;20560;-50
2021/10/25 07:09:40;;;;;;;10.30;9.30;;;6.20;99.90;;;;;;4960814;28;20256;-50
2021/10/25 07:12:06;;;;;;;9.73;8.60;;;6.40;99.90;;;;;;4961453;28;20191;-50
2021/10/25 07:14:36;;;;;;;9.40;8.50;;;6.40;99.90;;;;;;4963267;28;20456;-50
2021/10/25 07:22:47;;;;;;;10.48;8.88;;;6.70;99.90;;;;;;4960680;28;20193;-52
2021/10/25 08:01:20;;;;;;;12.25;9.13;;;8.00;99.90;;;;;;4960363;28;20561;-49
2021/10/25 08:09:10;;;;;;;10.88;8.45;;;8.80;99.90;;;;;;4961171;28;20727;-50
2021/10/25 08:11:48;;;;;;;11.93;8.05;;;9.00;99.90;;;;;;4943842;28;20525;-50
2021/10/25 08:14:15;;;;;;;10.55;9.45;;;9.20;99.90;;;;;;4961130;28;20608;-50
2021/10/25 08:16:50;;;;;;;9.82;8.07;;;9.40;99.90;;;;;;4943282;28;20189;-52
2021/10/25 08:19:26;;;;;;;13.38;8.82;;;9.30;99.90;;;;;;4967553;28;20238;-49
2021/10/25 08:21:58;;;;;;;13.38;8.88;;;9.70;99.90;;;;;;4958295;28;20188;-50
2021/10/25 08:24:26;;;;;;;8.98;8.07;;;9.90;99.90;;;;;;4938037;28;20209;-50
2021/10/25 08:26:52;;;;;;;12.75;8.35;;;10.20;99.90;;;;;;4960476;28;20570;-50
2021/10/25 08:29:19;;;;;;;11.07;8.23;;;10.30;99.90;;;;;;4965262;28;20208;-50
2021/10/25 08:31:54;;;;;;;8.82;7.07;;;10.70;99.90;;;;;;4965720;28;20431;-50
2021/10/25 08:34:37;;;;;;;9.23;8.10;;;10.80;99.90;;;;;;4965556;28;20696;-49
2021/10/25 08:39:48;;;;;;;9.63;7.78;;;10.70;99.90;;;;;;4955347;28;20301;-54
2021/10/25 08:42:23;;;;;;;9.80;8.90;;;11.20;99.90;;;;;;4959437;28;20192;-51
2021/10/25 08:45:09;;;;;;;7.93;7.22;;;11.40;99.90;;;;;;4965306;28;20200;-50
2021/10/25 08:47:43;;;;;;;12.15;8.82;;;11.20;99.90;;;;;;4955162;28;20224;-51
2021/10/25 08:50:14;;;;;;;19.30;16.48;;;11.30;99.90;;;;;;4964378;28;20224;-53
2021/10/25 08:52:42;;;;;;;7.75;7.05;;;11.50;99.90;;;;;;4957984;28;20183;-51
2021/10/25 08:55:11;;;;;;;9.68;7.43;;;11.30;99.90;;;;;;4938546;28;20228;-51
2021/10/25 08:57:41;;;;;;;10.15;7.30;;;11.50;99.90;;;;;;4959545;28;20203;-52
2021/10/25 09:00:08;;;;;;;9.70;7.57;;;11.60;99.90;;;;;;4943662;28;20766;-50
2021/10/25 09:02:34;;;;;;;9.60;6.97;;;11.80;99.90;;;;;;4957281;28;20181;-50
2021/10/25 09:05:04;;;;;;;9.63;6.67;;;12.10;99.50;;;;;;4962004;28;20205;-50
2021/10/25 09:07:31;;;;;;;7.95;6.47;;;12.30;99.40;;;;;;4954905;28;20533;-50
2021/10/25 09:09:57;;;;;;;8.70;6.00;;;12.20;98.80;;;;;;4958933;28;20305;-50
2021/10/25 09:12:23;;;;;;;8.50;5.73;;;12.30;98.60;;;;;;4963189;28;20185;-50
2021/10/25 09:14:55;;;;;;;6.63;5.87;;;12.40;98.10;;;;;;4953712;28;20673;-50
2021/10/25 09:17:21;;;;;;;6.28;5.65;;;12.50;97.30;;;;;;4960676;28;20263;-50
2021/10/25 09:19:48;;;;;;;6.20;5.60;;;12.50;97.60;;;;;;4955411;28;20703;-50
2021/10/25 09:22:16;;;;;;;8.85;6.55;;;12.70;97.70;;;;;;4952545;28;20192;-50
2021/10/25 09:24:59;;;;;;;6.82;5.88;;;12.70;97.30;;;;;;4956472;28;20737;-50
2021/10/25 09:27:29;;;;;;;8.55;6.35;;;12.50;97.10;;;;;;4956839;28;20433;-49
2021/10/25 09:29:59;;;;;;;8.57;6.40;;;12.90;97.10;;;;;;4956844;28;20208;-50
2021/10/25 09:32:31;;;;;;;8.63;6.55;;;12.50;97.40;;;;;;4958155;28;20224;-50
2021/10/25 09:34:59;;;;;;;7.15;6.38;;;13.10;97.10;;;;;;4955147;28;20195;-51
2021/10/25 09:37:29;;;;;;;12.82;7.10;;;13.00;96.80;;;;;;4959063;28;20633;-51
2021/10/25 09:40:01;;;;;;;6.28;5.68;;;13.30;96.70;;;;;;4958490;28;20216;-51
2021/10/25 09:50:40;;;;;;;8.32;5.15;;;13.70;94.10;;;;;;4967289;28;20208;-51
2021/10/25 09:53:08;;;;;;;8.13;5.55;;;14.10;93.90;;;;;;4963105;28;20249;-52
2021/10/25 09:55:43;;;;;;;6.60;5.80;;;14.20;93.30;;;;;;4963930;28;20556;-51
2021/10/25 09:58:23;;;;;;;5.63;5.13;;;14.40;93.10;;;;;;4958124;28;20188;-51
2021/10/25 10:00:50;;;;;;;6.30;5.38;;;14.60;92.30;;;;;;4959745;28;20283;-52
2021/10/25 10:03:16;;;;;;;8.50;5.80;;;14.80;92.30;;;;;;4960667;28;20240;-52
2021/10/25 10:05:43;;;;;;;6.50;5.17;;;14.50;91.80;;;;;;4958519;28;20188;-52
2021/10/25 10:08:11;;;;;;;6.55;5.95;;;14.80;91.60;;;;;;4958616;28;20448;-52
2021/10/25 10:10:38;;;;;;;5.68;5.15;;;15.60;91.50;;;;;;4959202;28;20613;-52
2021/10/25 10:13:06;;;;;;;6.75;5.55;;;15.60;90.50;;;;;;4963192;28;20242;-53
2021/10/25 10:15:34;;;;;;;7.22;6.03;;;15.90;90.30;;;;;;4970169;28;20606;-52
2021/10/25 10:18:18;;;;;;;7.35;6.65;;;15.90;90.00;;;;;;4955234;28;20613;-52
2021/10/25 10:20:49;;;;;;;7.70;5.60;;;16.40;89.50;;;;;;4961999;28;20580;-52
2021/10/25 10:23:17;;;;;;;6.10;5.50;;;16.90;88.60;;;;;;4957036;28;20185;-52
2021/10/25 10:25:50;;;;;;;7.65;6.10;;;17.40;86.90;;;;;;4955660;28;20304;-52
2021/10/25 10:28:20;;;;;;;8.18;5.80;;;17.60;84.00;;;;;;4957009;28;20228;-53
2021/10/25 10:30:52;;;;;;;7.45;6.75;;;18.00;82.90;;;;;;4956689;28;20204;-52
2021/10/25 10:33:29;;;;;;;5.90;5.30;;;18.30;81.20;;;;;;4956870;28;20291;-53
2021/10/25 10:35:54;;;;;;;6.35;4.75;;;18.60;79.30;;;;;;4965966;28;20733;-53
2021/10/25 10:38:31;;;;;;;6.10;5.50;;;18.50;79.50;;;;;;4959891;28;20283;-53
2021/10/25 10:40:56;;;;;;;5.78;5.18;;;18.70;77.60;;;;;;4964036;28;20202;-53
2021/10/25 10:43:26;;;;;;;5.80;5.20;;;18.80;76.80;;;;;;4965414;28;20283;-53
2021/10/25 10:46:01;;;;;;;6.47;5.45;;;19.30;76.30;;;;;;4965672;28;20181;-52
2021/10/25 10:48:29;;;;;;;8.27;5.88;;;20.10;74.80;;;;;;4962882;28;20275;-52
2021/10/25 10:51:05;;;;;;;4.55;4.25;;;20.60;73.50;;;;;;4964482;28;20258;-51
2021/10/25 10:53:38;;;;;;;5.50;5.00;;;20.30;72.60;;;;;;4964486;28;20287;-50
2021/10/25 10:56:53;;;;;;;5.43;4.97;;;20.20;73.10;;;;;;4973080;28;20188;-49
2021/10/25 11:01:31;;;;;;;5.77;4.93;;;19.50;73.30;;;;;;4963753;28;20679;-51
2021/10/25 11:03:59;;;;;;;5.93;5.28;;;19.00;74.40;;;;;;4961746;28;20192;-49
2021/10/25 11:06:33;;;;;;;8.60;5.93;;;18.60;76.80;;;;;;4972536;28;20184;-50
2021/10/25 11:09:07;;;;;;;5.60;5.10;;;18.30;79.20;;;;;;4958469;28;20209;-50
2021/10/25 11:11:32;;;;;;;9.25;5.82;;;17.90;81.40;;;;;;4961004;28;20336;-50
2021/10/25 11:14:04;;;;;;;5.80;5.30;;;17.90;80.70;;;;;;4959040;28;20555;-50
2021/10/25 11:16:38;;;;;;;5.63;5.03;;;18.00;81.00;;;;;;4961463;28;20188;-51
2021/10/25 11:19:05;;;;;;;8.57;5.30;;;18.40;80.60;;;;;;4963636;28;20307;-51
2021/10/25 11:21:37;;;;;;;4.97;4.53;;;18.40;80.40;;;;;;4968079;28;20203;-51
2021/10/25 11:24:07;;;;;;;5.20;4.68;;;19.10;78.40;;;;;;4957776;28;20181;-51
2021/10/25 11:26:43;;;;;;;5.15;4.53;;;19.40;76.70;;;;;;4964956;28;20219;-51
2021/10/25 11:29:20;;;;;;;5.78;5.18;;;19.20;76.80;;;;;;4960195;28;20597;-50
2021/10/25 11:31:50;;;;;;;5.35;4.85;;;19.30;76.90;;;;;;4962800;28;20219;-51
2021/10/25 11:34:23;;;;;;;5.65;5.10;;;19.20;76.90;;;;;;4966934;28;20180;-51
2021/10/25 11:37:12;;;;;;;5.45;4.80;;;19.00;78.20;;;;;;4965485;28;20199;-51
2021/10/25 11:39:49;;;;;;;6.65;4.35;;;18.60;79.00;;;;;;4958699;28;20212;-51
2021/10/25 11:42:32;;;;;;;6.15;4.45;;;18.40;79.90;;;;;;4964052;28;20653;-51
2021/10/25 11:45:06;;;;;;;5.53;5.03;;;18.30;80.70;;;;;;4962552;28;20190;-52
2021/10/25 11:47:38;;;;;;;4.93;4.43;;;18.00;81.50;;;;;;4963151;28;20188;-49
2021/10/25 11:50:15;;;;;;;9.10;5.68;;;17.90;81.30;;;;;;4960836;28;20312;-48
2021/10/25 11:52:43;;;;;;;5.45;4.88;;;18.00;82.10;;;;;;4961734;28;20181;-49
2021/10/25 11:55:11;;;;;;;5.60;5.10;;;17.90;81.70;;;;;;4960012;28;20672;-53
2021/10/25 11:57:37;;;;;;;4.30;4.00;;;17.40;82.80;;;;;;4960988;28;20834;-52
2021/10/25 12:00:09;;;;;;;4.83;4.37;;;17.80;82.80;;;;;;4966561;28;20307;-50
2021/10/25 12:02:36;;;;;;;5.20;4.20;;;17.60;83.00;;;;;;4961190;28;20802;-50
2021/10/25 12:05:02;;;;;;;5.20;4.70;;;17.60;82.20;;;;;;4964647;28;20232;-49
2021/10/25 12:07:28;;;;;;;5.50;5.00;;;17.70;82.40;;;;;;4961851;28;20177;-49
2021/10/25 12:10:05;;;;;;;4.20;3.80;;;17.80;83.20;;;;;;4966027;28;20211;-50
2021/10/25 12:12:32;;;;;;;4.65;4.25;;;17.50;82.50;;;;;;4959396;28;20203;-50
2021/10/25 12:15:00;;;;;;;5.53;5.00;;;17.50;82.50;;;;;;4955103;28;20211;-49
2021/10/25 12:17:31;;;;;;;4.18;3.78;;;17.50;83.30;;;;;;4943564;28;20201;-51
2021/10/25 12:19:57;;;;;;;7.03;5.03;;;17.70;81.80;;;;;;4968486;28;20242;-50
2021/10/25 12:22:23;;;;;;;4.27;3.87;;;17.80;81.70;;;;;;4958382;28;20196;-52
2021/10/25 12:24:51;;;;;;;6.93;5.07;;;17.80;80.80;;;;;;4966344;28;20188;-50
2021/10/25 12:27:36;;;;;;;6.00;5.38;;;18.00;82.00;;;;;;4957714;28;20184;-50
2021/10/25 12:30:10;;;;;;;11.30;10.20;;;17.90;80.80;;;;;;4957404;28;20208;-51
2021/10/25 12:32:39;;;;;;;8.57;6.45;;;18.00;81.10;;;;;;4958514;28;20180;-50
2021/10/25 12:35:06;;;;;;;6.82;4.65;;;18.10;81.50;;;;;;4963780;28;20595;-51
2021/10/25 12:37:34;;;;;;;3.80;3.47;;;18.10;81.20;;;;;;4967977;28;20693;-48
2021/10/25 12:40:01;;;;;;;5.75;5.20;;;18.10;80.80;;;;;;4967403;28;20228;-48
2021/10/25 12:42:40;;;;;;;6.03;4.82;;;18.30;80.30;;;;;;4961789;28;20193;-47
2021/10/25 12:45:21;;;;;;;5.35;4.70;;;18.10;80.50;;;;;;4961891;28;20670;-49
2021/10/25 12:47:51;;;;;;;5.88;4.97;;;18.10;80.10;;;;;;4966253;28;20228;-49
2021/10/25 12:50:17;;;;;;;9.55;8.75;;;18.20;80.90;;;;;;4972733;28;20218;-50
2021/10/25 12:52:44;;;;;;;9.03;7.57;;;18.20;80.90;;;;;;4945907;28;20196;-49
2021/10/25 12:55:13;;;;;;;7.00;5.95;;;18.30;80.70;;;;;;4961541;28;20189;-49
2021/10/25 12:57:40;;;;;;;6.80;6.10;;;18.40;80.80;;;;;;4960083;28;20713;-49
2021/10/25 13:00:14;;;;;;;6.72;6.10;;;18.50;81.40;;;;;;4965962;28;20283;-49
2021/10/25 13:02:47;;;;;;;7.35;6.18;;;18.50;80.40;;;;;;4945327;28;20183;-50
2021/10/25 13:05:27;;;;;;;8.23;7.40;;;18.60;80.50;;;;;;4958686;28;20184;-49
2021/10/25 13:07:56;;;;;;;11.20;6.85;;;18.60;80.80;;;;;;4953534;28;20216;-50
2021/10/25 13:10:36;;;;;;;6.18;5.55;;;18.60;80.40;;;;;;4953324;28;20217;-51
2021/10/25 13:13:04;;;;;;;6.47;5.47;;;18.70;80.30;;;;;;4963201;28;20241;-50
2021/10/25 13:15:31;;;;;;;6.60;6.00;;;18.60;79.70;;;;;;4963147;28;20200;-50
2021/10/25 13:17:58;;;;;;;6.65;5.65;;;18.60;81.00;;;;;;4961564;28;20692;-51
2021/10/25 13:20:27;;;;;;;6.47;5.82;;;18.50;80.50;;;;;;4960601;28;20266;-50
2021/10/25 13:22:55;;;;;;;9.45;5.60;;;18.40;80.90;;;;;;4961629;28;20187;-51
2021/10/25 13:25:23;;;;;;;4.93;3.90;;;18.20;81.40;;;;;;4965201;28;20186;-52
2021/10/25 13:27:49;;;;;;;2.50;2.10;;;18.30;78.60;;;;;;4942615;28;20190;-51
2021/10/25 13:30:16;;;;;;;4.45;3.70;;;18.40;69.60;;;;;;4959257;28;20212;-51
2021/10/25 13:32:43;;;;;;;3.88;2.90;;;18.30;73.00;;;;;;4962361;28;20687;-51
2021/10/25 13:35:10;;;;;;;4.45;2.50;;;18.30;71.70;;;;;;4958877;28;20207;-51
2021/10/25 13:37:36;;;;;;;3.05;2.80;;;18.30;68.10;;;;;;4959263;28;20590;-52
2021/10/25 13:40:03;;;;;;;3.22;2.90;;;18.40;77.00;;;;;;4965904;28;20639;-51
2021/10/25 13:42:29;;;;;;;2.42;2.22;;;18.50;71.60;;;;;;4956456;28;20212;-51
2021/10/25 13:44:54;;;;;;;2.70;2.20;;;18.40;67.00;;;;;;4958625;28;20220;-49
2021/10/25 13:47:20;;;;;;;2.30;2.10;;;18.40;66.40;;;;;;4954784;28;20832;-49
2021/10/25 13:49:48;;;;;;;7.60;2.53;;;18.40;68.90;;;;;;4958187;28;20286;-50
2021/10/25 13:52:15;;;;;;;2.60;2.10;;;18.30;69.00;;;;;;4963815;28;20192;-50
2021/10/25 13:54:41;;;;;;;4.90;2.40;;;18.30;69.30;;;;;;4961172;28;20626;-49
2021/10/25 13:57:08;;;;;;;2.13;1.93;;;18.40;67.80;;;;;;4942140;28;20199;-53
2021/10/25 13:59:35;;;;;;;3.20;2.50;;;18.50;65.90;;;;;;4953035;28;20686;-52
2021/10/25 14:02:02;;;;;;;2.83;2.30;;;18.50;65.80;;;;;;4940133;28;20272;-52
2021/10/25 14:04:28;;;;;;;3.22;2.50;;;18.40;67.60;;;;;;4953301;28;20196;-53
2021/10/25 14:06:55;;;;;;;5.17;3.80;;;18.40;67.90;;;;;;4960551;28;20188;-52
2021/10/25 14:09:20;;;;;;;2.72;2.30;;;18.30;70.00;;;;;;4967149;28;20526;-51
2021/10/25 14:11:50;;;;;;;3.30;2.60;;;18.40;67.70;;;;;;4958035;28;20200;-52
2021/10/25 14:14:19;;;;;;;3.03;2.75;;;18.30;67.20;;;;;;4958594;28;20199;-53
2021/10/25 14:16:51;;;;;;;2.80;2.10;;;18.20;69.10;;;;;;4952784;28;20276;-52
2021/10/25 14:19:17;;;;;;;3.40;3.10;;;18.30;66.60;;;;;;4954350;28;20220;-51
2021/10/25 14:21:43;;;;;;;4.40;2.15;;;18.20;71.30;;;;;;4958986;28;20287;-50
2021/10/25 14:24:09;;;;;;;2.63;2.10;;;18.30;68.40;;;;;;4952198;28;20215;-50